createdAt,value
2023-03-19T00:00:44.912Z,13.56
2023-03-19T00:03:11.922Z,13.53
2023-03-19T00:05:38.977Z,13.55
2023-03-19T00:08:06.155Z,13.51
2023-03-19T00:10:33.120Z,13.45
2023-03-19T00:13:00.604Z,13.43
2023-03-19T00:15:27.618Z,13.43
2023-03-19T00:17:56.445Z,13.38
2023-03-19T00:20:23.389Z,13.34
2023-03-19T00:22:50.465Z,13.20
2023-03-19T00:25:17.736Z,13.09
2023-03-19T00:27:44.778Z,13.07
2023-03-19T00:30:12.437Z,13.05
2023-03-19T00:32:40.420Z,13.11
2023-03-19T00:35:08.653Z,13.00
2023-03-19T00:37:37.337Z,12.99
2023-03-19T00:40:05.600Z,12.98
2023-03-19T00:42:34.587Z,12.96
2023-03-19T00:45:01.534Z,12.98
2023-03-19T00:47:28.609Z,13.00
2023-03-19T00:49:56.070Z,13.04
2023-03-19T00:52:23.039Z,13.06
2023-03-19T00:54:50.301Z,13.02
2023-03-19T00:57:18.789Z,13.05
2023-03-19T00:59:45.812Z,13.00
2023-03-19T01:02:12.747Z,12.95
2023-03-19T01:04:39.780Z,12.93
2023-03-19T01:07:07.004Z,12.89
2023-03-19T01:09:35.835Z,12.87
2023-03-19T01:12:04.736Z,12.88
2023-03-19T01:14:32.520Z,12.93
2023-03-19T01:17:00.179Z,12.97
2023-03-19T01:19:27.539Z,13.00
2023-03-19T01:21:54.627Z,13.02
2023-03-19T01:24:23.002Z,13.05
2023-03-19T01:26:53.593Z,13.06
2023-03-19T01:29:32.005Z,13.04
2023-03-19T01:32:06.051Z,13.01
2023-03-19T01:34:59.220Z,12.90
2023-03-19T01:37:26.493Z,12.86
2023-03-19T01:39:53.653Z,12.92
2023-03-19T01:42:20.672Z,12.86
2023-03-19T01:44:47.757Z,12.57
2023-03-19T01:47:34.148Z,12.37
2023-03-19T01:50:31.806Z,12.11
2023-03-19T01:53:17.657Z,11.98
2023-03-19T01:56:04.183Z,11.92
2023-03-19T01:58:42.106Z,11.87
2023-03-19T02:01:28.207Z,11.90
2023-03-19T02:03:57.159Z,11.98
2023-03-19T02:06:30.113Z,12.04
2023-03-19T02:08:58.984Z,12.07
2023-03-19T02:11:26.353Z,12.09
2023-03-19T02:13:53.609Z,12.10
2023-03-19T02:16:21.238Z,12.13
2023-03-19T02:18:49.334Z,12.17
2023-03-19T02:21:18.430Z,12.15
2023-03-19T02:24:23.233Z,12.15
2023-03-19T02:27:02.014Z,12.15
2023-03-19T02:29:29.609Z,12.14
2023-03-19T02:31:59.508Z,12.16
2023-03-19T02:34:26.341Z,12.16
2023-03-19T02:37:03.391Z,12.16
2023-03-19T02:39:49.253Z,12.14
2023-03-19T02:42:18.787Z,12.11
2023-03-19T02:44:46.198Z,12.08
2023-03-19T02:47:13.625Z,12.07
2023-03-19T02:49:40.619Z,12.06
2023-03-19T02:52:08.061Z,12.03
2023-03-19T02:54:35.189Z,12.01
2023-03-19T02:57:02.198Z,12.02
2023-03-19T02:59:29.177Z,12.03
2023-03-19T03:01:56.563Z,12.00
2023-03-19T03:04:23.574Z,11.98
2023-03-19T03:06:50.536Z,11.98
2023-03-19T03:09:18.211Z,11.98
2023-03-19T03:11:45.315Z,11.97
2023-03-19T03:14:12.453Z,11.99
2023-03-19T03:16:39.550Z,11.98
2023-03-19T03:19:07.041Z,11.96
2023-03-19T03:21:35.681Z,11.95
2023-03-19T03:24:04.018Z,11.95
2023-03-19T03:26:31.657Z,11.91
2023-03-19T03:28:58.618Z,11.95
2023-03-19T03:31:26.964Z,11.95
2023-03-19T03:33:54.170Z,11.96
2023-03-19T03:36:21.489Z,11.96
2023-03-19T03:38:48.472Z,11.96
2023-03-19T03:41:15.949Z,11.99
2023-03-19T03:43:42.950Z,11.95
2023-03-19T03:46:10.095Z,11.91
2023-03-19T03:48:37.409Z,11.91
2023-03-19T03:51:04.549Z,11.88
2023-03-19T03:53:32.831Z,11.85
2023-03-19T03:56:01.366Z,11.84
2023-03-19T03:58:29.899Z,11.83
2023-03-19T04:00:56.906Z,11.80
2023-03-19T04:03:24.566Z,11.78
2023-03-19T04:05:52.364Z,11.77
2023-03-19T04:08:21.223Z,11.76
2023-03-19T04:10:48.379Z,11.74
2023-03-19T04:13:15.457Z,11.74
2023-03-19T04:15:43.841Z,11.74
2023-03-19T04:18:12.161Z,11.74
2023-03-19T04:20:40.075Z,11.73
2023-03-19T04:23:07.189Z,11.74
2023-03-19T04:25:34.361Z,11.76
2023-03-19T04:28:01.986Z,11.78
2023-03-19T04:30:29.315Z,11.81
2023-03-19T04:32:56.711Z,11.82
2023-03-19T04:35:24.025Z,11.81
2023-03-19T04:37:51.599Z,11.81
2023-03-19T04:40:20.557Z,11.84
2023-03-19T04:42:48.575Z,11.80
2023-03-19T04:45:28.768Z,11.79
2023-03-19T04:47:56.279Z,11.79
2023-03-19T04:50:23.448Z,11.80
2023-03-19T04:52:51.061Z,11.81
2023-03-19T04:55:18.285Z,11.82
2023-03-19T04:58:02.354Z,11.83
2023-03-19T05:00:32.676Z,11.83
2023-03-19T05:03:00.116Z,11.83
2023-03-19T05:05:29.100Z,11.81
2023-03-19T05:07:57.386Z,11.83
2023-03-19T05:10:25.055Z,11.82
2023-03-19T05:12:52.314Z,11.78
2023-03-19T05:15:19.744Z,11.76
2023-03-19T05:17:57.731Z,11.74
2023-03-19T05:20:31.399Z,11.71
2023-03-19T05:23:05.310Z,11.70
2023-03-19T05:25:41.845Z,11.69
2023-03-19T05:28:11.460Z,11.68
2023-03-19T05:30:38.640Z,11.68
2023-03-19T05:33:10.725Z,11.68
2023-03-19T05:35:41.281Z,11.65
2023-03-19T05:38:22.086Z,11.66
2023-03-19T05:40:55.716Z,11.65
2023-03-19T05:43:32.572Z,11.65
2023-03-19T05:46:01.698Z,11.66
2023-03-19T05:48:33.417Z,11.65
2023-03-19T05:51:01.886Z,11.64
2023-03-19T05:53:34.628Z,11.67
2023-03-19T05:56:21.696Z,11.68
2023-03-19T05:59:00.276Z,11.68
2023-03-19T06:01:34.931Z,11.66
2023-03-19T06:04:03.676Z,11.64
2023-03-19T06:06:31.797Z,11.63
2023-03-19T06:08:58.759Z,11.62
2023-03-19T06:11:34.052Z,11.62
2023-03-19T06:14:24.152Z,11.60
2023-03-19T06:17:09.745Z,11.58
2023-03-19T06:19:36.953Z,11.58
2023-03-19T06:22:04.215Z,11.57
2023-03-19T06:24:31.357Z,11.56
2023-03-19T06:26:58.384Z,11.55
2023-03-19T06:29:26.968Z,11.54
2023-03-19T06:32:00.449Z,11.51
2023-03-19T06:34:36.689Z,11.53
2023-03-19T06:37:03.696Z,11.54
2023-03-19T06:39:30.636Z,11.57
2023-03-19T06:41:57.629Z,11.57
2023-03-19T06:44:27.305Z,11.54
2023-03-19T06:46:54.307Z,11.51
2023-03-19T06:49:21.949Z,11.51
2023-03-19T06:51:48.941Z,11.54
2023-03-19T06:54:16.204Z,11.58
2023-03-19T06:56:43.686Z,11.63
2023-03-19T06:59:13.029Z,11.61
2023-03-19T07:01:43.093Z,11.60
2023-03-19T07:04:11.180Z,11.61
2023-03-19T07:06:38.302Z,11.64
2023-03-19T07:09:05.317Z,11.68
2023-03-19T07:11:35.191Z,11.73
2023-03-19T07:14:04.007Z,11.74
2023-03-19T07:16:31.406Z,11.77
2023-03-19T07:18:58.439Z,11.80
2023-03-19T07:21:25.580Z,11.85
2023-03-19T07:23:52.522Z,11.86
2023-03-19T07:26:19.519Z,11.88
2023-03-19T07:28:46.662Z,11.91
2023-03-19T07:31:14.218Z,11.95
2023-03-19T07:33:41.281Z,11.97
2023-03-19T07:36:08.763Z,12.00
2023-03-19T07:38:35.841Z,12.02
2023-03-19T07:41:03.240Z,12.05
2023-03-19T07:43:31.437Z,12.10
2023-03-19T07:45:59.166Z,12.12
2023-03-19T07:48:26.587Z,12.15
2023-03-19T07:50:54.240Z,12.20
2023-03-19T07:53:21.425Z,12.24
2023-03-19T07:55:49.028Z,12.31
2023-03-19T07:58:16.939Z,12.35
2023-03-19T08:00:45.091Z,12.40
2023-03-19T08:03:12.730Z,12.41
2023-03-19T08:05:39.984Z,12.42
2023-03-19T08:08:07.233Z,12.44
2023-03-19T08:10:36.479Z,12.43
2023-03-19T08:13:05.279Z,12.44
2023-03-19T08:15:33.193Z,12.47
2023-03-19T08:18:01.595Z,12.48
2023-03-19T08:20:28.630Z,12.50
2023-03-19T08:22:57.484Z,12.51
2023-03-19T08:25:25.724Z,12.51
2023-03-19T08:27:53.001Z,12.56
2023-03-19T08:30:19.977Z,12.60
2023-03-19T08:32:47.076Z,12.65
2023-03-19T08:35:14.200Z,12.67
2023-03-19T08:37:41.134Z,12.74
2023-03-19T08:40:09.801Z,12.82
2023-03-19T08:42:44.353Z,12.92
2023-03-19T08:45:14.875Z,13.07
2023-03-19T08:47:43.501Z,13.23
2023-03-19T08:50:11.405Z,13.35
2023-03-19T08:52:38.433Z,13.49
2023-03-19T08:55:06.206Z,13.63
2023-03-19T08:57:33.690Z,13.83
2023-03-19T09:00:01.856Z,13.98
2023-03-19T09:02:28.825Z,14.08
2023-03-19T09:04:55.838Z,14.19
2023-03-19T09:07:22.940Z,14.24
2023-03-19T09:09:50.436Z,14.30
2023-03-19T09:12:18.879Z,14.32
2023-03-19T09:14:45.870Z,14.36
2023-03-19T09:17:13.682Z,14.41
2023-03-19T09:19:41.572Z,14.53
2023-03-19T09:22:08.536Z,14.61
2023-03-19T09:24:35.491Z,14.70
2023-03-19T09:27:02.808Z,14.86
2023-03-19T09:29:29.906Z,14.97
2023-03-19T09:31:56.849Z,15.12
2023-03-19T09:34:24.477Z,15.25
2023-03-19T09:36:51.434Z,15.38
2023-03-19T09:39:18.452Z,15.45
2023-03-19T09:42:10.656Z,15.58
2023-03-19T09:44:41.185Z,15.61
2023-03-19T09:47:28.768Z,15.68
2023-03-19T09:49:59.971Z,15.75
2023-03-19T09:52:53.867Z,15.82
2023-03-19T09:55:47.935Z,15.93
2023-03-19T09:58:21.294Z,16.05
2023-03-19T10:00:52.259Z,16.18
2023-03-19T10:03:31.589Z,16.31
2023-03-19T10:06:21.153Z,16.34
2023-03-19T10:09:37.156Z,16.41
2023-03-19T10:12:22.811Z,16.52
2023-03-19T10:15:31.945Z,16.66
2023-03-19T10:18:12.237Z,16.81
2023-03-19T10:21:12.644Z,16.91
2023-03-19T10:23:46.812Z,17.01
2023-03-19T10:26:18.037Z,17.00
2023-03-19T10:29:02.611Z,17.03
2023-03-19T10:31:51.837Z,17.04
2023-03-19T10:34:33.554Z,17.12
2023-03-19T10:37:14.865Z,17.22
2023-03-19T10:39:45.389Z,17.27
2023-03-19T10:42:41.231Z,17.33
2023-03-19T10:45:32.284Z,17.43
2023-03-19T10:48:02.681Z,17.46
2023-03-19T10:50:42.677Z,17.56
2023-03-19T10:53:15.278Z,17.64
2023-03-19T10:55:53.219Z,17.74
2023-03-19T10:58:25.628Z,17.81
2023-03-19T11:01:09.533Z,17.91
2023-03-19T11:03:51.354Z,18.02
2023-03-19T11:06:33.694Z,18.13
2023-03-19T11:12:25.376Z,18.41
2023-03-19T11:14:56.294Z,18.51
2023-03-19T11:17:40.395Z,18.42
2023-03-19T11:20:36.281Z,18.31
2023-03-19T11:23:13.865Z,18.29
2023-03-19T11:25:52.424Z,18.31
2023-03-19T11:28:26.811Z,18.27
2023-03-19T11:31:50.297Z,18.23
2023-03-19T11:34:25.512Z,18.23
2023-03-19T11:37:16.411Z,18.32
2023-03-19T11:39:58.620Z,18.38
2023-03-19T11:42:52.219Z,18.48
2023-03-19T11:45:33.473Z,18.53
2023-03-19T11:48:33.839Z,18.57
2023-03-19T11:51:46.962Z,18.71
2023-03-19T11:54:44.023Z,18.77
2023-03-19T11:57:52.570Z,18.89
2023-03-19T12:00:52.144Z,18.78
2023-03-19T12:03:50.007Z,18.75
2023-03-19T12:06:24.891Z,18.75
2023-03-19T12:09:23.886Z,18.71
2023-03-19T12:12:27.177Z,18.65
2023-03-19T12:15:36.001Z,18.62
2023-03-19T12:18:39.909Z,18.46
2023-03-19T12:21:15.797Z,18.37
2023-03-19T12:24:25.090Z,18.26
2023-03-19T12:27:33.644Z,18.06
2023-03-19T12:30:15.544Z,17.97
2023-03-19T12:33:09.992Z,17.94
2023-03-19T12:35:40.816Z,17.88
2023-03-19T12:38:46.469Z,17.93
2023-03-19T12:41:31.397Z,18.07
2023-03-19T12:44:25.846Z,18.26
2023-03-19T12:47:09.661Z,18.30
2023-03-19T12:50:07.116Z,18.29
2023-03-19T12:52:39.980Z,18.18
2023-03-19T12:55:26.566Z,18.12
2023-03-19T12:58:24.210Z,18.06
2023-03-19T13:01:08.937Z,17.92
2023-03-19T13:04:04.261Z,17.78
2023-03-19T13:06:47.750Z,17.66
2023-03-19T13:09:33.757Z,17.56
2023-03-19T13:12:25.660Z,17.44
2023-03-19T13:15:07.179Z,17.28
2023-03-19T13:17:42.224Z,17.19
2023-03-19T13:20:27.629Z,17.08
2023-03-19T13:23:03.128Z,17.00
2023-03-19T13:25:39.803Z,16.93
2023-03-19T13:28:30.579Z,16.87
2023-03-19T13:31:17.670Z,16.79
2023-03-19T13:34:05.069Z,16.74
2023-03-19T13:36:41.671Z,16.70
2023-03-19T13:39:18.917Z,16.61
2023-03-19T13:41:57.836Z,16.58
2023-03-19T13:44:32.490Z,16.56
2023-03-19T13:47:25.556Z,16.54
2023-03-19T13:50:22.722Z,16.52
2023-03-19T13:52:52.380Z,16.50
2023-03-19T13:55:27.969Z,16.47
2023-03-19T13:58:12.198Z,16.42
2023-03-19T14:00:42.829Z,16.34
2023-03-19T14:03:30.832Z,16.28
2023-03-19T14:05:59.582Z,16.24
2023-03-19T14:08:51.620Z,16.21
2023-03-19T14:11:33.738Z,16.16
2023-03-19T14:14:08.740Z,16.15
2023-03-19T14:16:41.898Z,16.12
2023-03-19T14:19:17.809Z,16.08
2023-03-19T14:21:59.966Z,16.07
2023-03-19T14:24:58.247Z,16.04
2023-03-19T14:27:33.074Z,16.08
2023-03-19T14:30:16.594Z,16.12
2023-03-19T14:32:47.930Z,16.18
2023-03-19T14:35:20.494Z,16.23
2023-03-19T14:37:52.125Z,16.33
2023-03-19T14:40:32.694Z,16.41
2023-03-19T14:43:22.183Z,16.49
2023-03-19T14:46:03.936Z,16.54
2023-03-19T14:48:55.133Z,16.59
2023-03-19T14:51:24.649Z,16.65
2023-03-19T14:54:03.280Z,16.68
2023-03-19T14:56:36.615Z,16.74
2023-03-19T14:59:06.051Z,16.77
2023-03-19T15:01:41.034Z,16.80
2023-03-19T15:04:12.339Z,16.79
2023-03-19T15:06:42.802Z,16.77
2023-03-19T15:09:32.169Z,16.72
2023-03-19T15:13:08.921Z,16.63
2023-03-19T15:16:13.704Z,16.57
2023-03-19T15:18:40.858Z,16.52
2023-03-19T15:21:08.007Z,16.48
2023-03-19T15:23:46.990Z,16.45
2023-03-19T15:26:15.697Z,16.40
2023-03-19T15:28:53.744Z,16.38
2023-03-19T15:31:38.287Z,16.35
2023-03-19T15:34:27.819Z,16.31
2023-03-19T15:37:02.765Z,16.29
2023-03-19T15:39:45.244Z,16.27
2023-03-19T15:42:16.103Z,16.24
2023-03-19T15:44:49.135Z,16.22
2023-03-19T15:47:32.124Z,16.19
2023-03-19T15:50:16.572Z,16.18
2023-03-19T15:52:50.738Z,16.17
2023-03-19T15:55:18.564Z,16.17
2023-03-19T15:57:45.733Z,16.17
2023-03-19T16:00:14.639Z,16.18
2023-03-19T16:02:45.818Z,16.20
2023-03-19T16:05:31.530Z,16.20
2023-03-19T16:08:02.007Z,16.21
2023-03-19T16:10:28.940Z,16.23
2023-03-19T16:12:56.702Z,16.23
2023-03-19T16:15:44.197Z,16.25
2023-03-19T16:18:17.249Z,16.27
2023-03-19T16:21:14.720Z,16.28
2023-03-19T16:23:49.869Z,16.29
2023-03-19T16:26:41.359Z,16.31
2023-03-19T16:29:26.461Z,16.32
2023-03-19T16:32:02.453Z,16.34
2023-03-19T16:34:37.407Z,16.35
2023-03-19T16:37:43.621Z,16.33
2023-03-19T16:40:13.702Z,16.30
2023-03-19T16:42:46.270Z,16.24
2023-03-19T16:45:30.711Z,16.23
2023-03-19T16:48:03.296Z,16.14
2023-03-19T16:50:40.911Z,16.08
2023-03-19T16:53:24.028Z,16.04
2023-03-19T16:55:53.148Z,15.99
2023-03-19T16:58:36.978Z,15.94
2023-03-19T17:01:22.122Z,15.90
2023-03-19T17:03:50.386Z,15.86
2023-03-19T17:06:18.929Z,15.83
2023-03-19T17:08:47.043Z,15.77
2023-03-19T17:11:39.801Z,15.73
2023-03-19T17:14:15.389Z,15.68
2023-03-19T17:16:50.443Z,15.62
2023-03-19T17:19:26.591Z,15.54
2023-03-19T17:21:58.545Z,15.48
2023-03-19T17:24:34.347Z,15.40
2023-03-19T17:27:04.166Z,15.30
2023-03-19T17:29:33.220Z,15.19
2023-03-19T17:32:04.147Z,15.09
2023-03-19T17:34:36.237Z,15.01
2023-03-19T17:37:06.590Z,14.92
2023-03-19T17:39:34.062Z,14.83
2023-03-19T17:42:01.101Z,14.77
2023-03-19T17:44:28.271Z,14.70
2023-03-19T17:46:56.604Z,14.60
2023-03-19T17:49:28.836Z,14.53
2023-03-19T17:51:57.873Z,14.45
2023-03-19T17:54:28.616Z,14.37
2023-03-19T17:56:56.074Z,14.31
2023-03-19T17:59:23.696Z,14.26
2023-03-19T18:01:51.973Z,14.19
2023-03-19T18:04:22.147Z,14.13
2023-03-19T18:06:56.882Z,14.07
2023-03-19T18:09:32.607Z,13.97
2023-03-19T18:11:59.718Z,13.89
2023-03-19T18:14:26.777Z,13.81
2023-03-19T18:16:53.882Z,13.76
2023-03-19T18:19:31.388Z,13.68
2023-03-19T18:21:58.922Z,13.62
2023-03-19T18:24:25.976Z,13.56
2023-03-19T18:26:53.501Z,13.51
2023-03-19T18:29:20.981Z,13.42
2023-03-19T18:31:50.048Z,13.32
2023-03-19T18:34:17.779Z,13.26
2023-03-19T18:36:45.006Z,13.17
2023-03-19T18:39:16.429Z,13.09
2023-03-19T18:41:44.381Z,12.99
2023-03-19T18:44:12.226Z,12.96
2023-03-19T18:46:41.634Z,12.90
2023-03-19T18:49:25.039Z,12.78
2023-03-19T18:52:08.917Z,12.69
2023-03-19T18:54:36.076Z,12.67
2023-03-19T18:57:03.282Z,12.60
2023-03-19T18:59:33.694Z,12.51
2023-03-19T19:02:20.664Z,12.42
2023-03-19T19:04:48.382Z,12.38
2023-03-19T19:07:17.214Z,12.36
2023-03-19T19:09:44.372Z,12.25
2023-03-19T19:12:18.399Z,12.25
2023-03-19T19:14:47.095Z,12.21
2023-03-19T19:17:20.172Z,12.18
2023-03-19T19:19:47.700Z,12.14
2023-03-19T19:22:17.550Z,12.04
2023-03-19T19:24:45.301Z,11.99
2023-03-19T19:27:23.999Z,11.92
2023-03-19T19:29:51.877Z,11.89
2023-03-19T19:32:29.441Z,11.87
2023-03-19T19:34:57.012Z,11.85
2023-03-19T19:37:24.226Z,11.82
2023-03-19T19:39:52.238Z,11.76
2023-03-19T19:42:22.459Z,11.71
2023-03-19T19:44:58.595Z,11.68
2023-03-19T19:47:27.591Z,11.64
2023-03-19T19:49:56.376Z,11.63
2023-03-19T19:52:23.561Z,11.59
2023-03-19T19:54:51.699Z,11.57
2023-03-19T19:57:24.531Z,11.58
2023-03-19T19:59:53.143Z,11.56
2023-03-19T20:02:28.680Z,11.54
2023-03-19T20:04:57.706Z,11.55
2023-03-19T20:07:24.911Z,11.50
2023-03-19T20:09:52.002Z,11.46
2023-03-19T20:12:27.781Z,11.43
2023-03-19T20:14:54.945Z,11.38
2023-03-19T20:17:22.512Z,11.38
2023-03-19T20:19:49.784Z,11.35
2023-03-19T20:22:17.335Z,11.34
2023-03-19T20:24:48.254Z,11.32
2023-03-19T20:27:21.126Z,11.30
2023-03-19T20:29:50.570Z,11.26
2023-03-19T20:32:27.435Z,11.24
2023-03-19T20:34:54.568Z,11.22
2023-03-19T20:37:21.645Z,11.17
2023-03-19T20:39:49.058Z,11.15
2023-03-19T20:42:16.731Z,11.15
2023-03-19T20:44:44.777Z,11.12
2023-03-19T20:47:25.495Z,11.11
2023-03-19T20:49:53.406Z,11.10
2023-03-19T20:52:21.326Z,11.09
2023-03-19T20:54:48.847Z,11.09
2023-03-19T20:57:22.645Z,11.08
2023-03-19T20:59:50.154Z,11.06
2023-03-19T21:02:21.963Z,11.01
2023-03-19T21:04:49.234Z,11.01
2023-03-19T21:07:34.430Z,11.02
2023-03-19T21:10:14.548Z,10.97
2023-03-19T21:12:45.198Z,10.99
2023-03-19T21:15:15.300Z,10.98
2023-03-19T21:17:42.636Z,10.94
2023-03-19T21:20:19.123Z,10.91
2023-03-19T21:22:52.750Z,10.89
2023-03-19T21:25:24.914Z,10.88
2023-03-19T21:27:56.357Z,10.87
2023-03-19T21:30:23.633Z,10.83
2023-03-19T21:32:51.501Z,10.80
2023-03-19T21:35:22.363Z,10.78
2023-03-19T21:37:49.968Z,10.77
2023-03-19T21:40:30.918Z,10.74
2023-03-19T21:43:00.700Z,10.71
2023-03-19T21:45:35.456Z,10.71
2023-03-19T21:48:15.757Z,10.67
2023-03-19T21:50:43.024Z,10.67
2023-03-19T21:53:10.891Z,10.64
2023-03-19T21:55:38.149Z,10.62
2023-03-19T21:58:10.340Z,10.61
2023-03-19T22:00:37.325Z,10.59
2023-03-19T22:03:04.322Z,10.59
2023-03-19T22:05:31.444Z,10.58
2023-03-19T22:07:58.404Z,10.59
2023-03-19T22:10:30.773Z,10.58
2023-03-19T22:12:57.809Z,10.55
2023-03-19T22:15:37.467Z,10.52
2023-03-19T22:18:11.941Z,10.53
2023-03-19T22:20:38.884Z,10.50
2023-03-19T22:23:06.156Z,10.50
2023-03-19T22:25:36.070Z,10.46
2023-03-19T22:28:25.884Z,10.45
2023-03-19T22:30:53.156Z,10.44
2023-03-19T22:33:24.325Z,10.40
2023-03-19T22:35:51.801Z,10.36
2023-03-19T22:38:21.581Z,10.33
2023-03-19T22:40:55.894Z,10.32
2023-03-19T22:43:30.574Z,10.33
2023-03-19T22:46:13.447Z,10.29
2023-03-19T22:48:41.893Z,10.30
2023-03-19T22:51:13.976Z,10.30
2023-03-19T22:53:41.149Z,10.26
2023-03-19T22:56:11.364Z,10.24
2023-03-19T22:58:38.493Z,10.26
2023-03-19T23:01:31.257Z,10.24
2023-03-19T23:04:14.120Z,10.23
2023-03-19T23:06:41.141Z,10.22
2023-03-19T23:09:20.296Z,10.23
2023-03-19T23:11:50.942Z,10.22
2023-03-19T23:14:29.131Z,10.23
2023-03-19T23:17:03.391Z,10.21
2023-03-19T23:19:38.317Z,10.19
2023-03-19T23:22:07.404Z,10.16
2023-03-19T23:24:34.650Z,10.13
2023-03-19T23:27:02.636Z,10.09
2023-03-19T23:29:44.007Z,10.10
2023-03-19T23:32:11.424Z,10.07
2023-03-19T23:34:55.683Z,10.07
2023-03-19T23:37:24.908Z,10.04
2023-03-19T23:39:51.869Z,10.05
2023-03-19T23:42:28.660Z,10.05
2023-03-19T23:45:01.217Z,10.04
2023-03-19T23:47:29.606Z,10.04
2023-03-19T23:49:57.089Z,10.04
2023-03-19T23:52:24.031Z,10.02
2023-03-19T23:54:52.300Z,10.02
2023-03-19T23:57:20.794Z,9.98
2023-03-19T23:59:51.504Z,9.96
